This is the latest recevied weather packets stored in our database for station/object KC0MWM-2. If no packets are shown the sender has not sent any weather packets the latest 10 day(s).
| Time | Temp. | Humidity | Pressure | Rain* | Wind** | Luminosity | Snow |
|---|---|---|---|---|---|---|---|
| 1777143736 | 7.22° C | 95% | 1011.2 hPa | 4.57 mm | - | - | - |
| 1777141336 | 8.33° C | 85% | 1011.3 hPa | 0 mm | - | - | - |
| 1777136536 | 13.89° C | 79% | 1011.2 hPa | 0 mm | - | - | - |
| 1777134136 | 11.67° C | 82% | 1012.2 hPa | 0 mm | - | - | - |
| 1777133536 | 11.67° C | 82% | 1012.4 hPa | 0 mm | - | - | - |
| 1777132356 | 10.56° C | 85% | 1012.5 hPa | 0 mm | - | - | - |
| 1777128135 | 8.89° C | 81% | 1013.3 hPa | 0 mm | - | - | - |
| 1777121535 | 10° C | 79% | 1013 hPa | 0 mm | - | - | - |
| 1777113737 | 8.89° C | 77% | 1013.3 hPa | 0 mm | - | - | - |
| 1777113137 | 8.89° C | 77% | 1013.1 hPa | 0 mm | - | - | - |
| 1777112537 | 8.89° C | 77% | 1013.3 hPa | 0 mm | - | - | - |
| 1777111357 | 8.89° C | 77% | 1013 hPa | 0 mm | - | - | - |
| 1777110137 | 8.89° C | 76% | 1012.8 hPa | 0 mm | - | - | - |
| 1777109537 | 8.89° C | 76% | 1012.8 hPa | 0 mm | - | - | - |
| 1777108337 | 8.89° C | 76% | 1012.4 hPa | 0 mm | - | - | - |
| 1777107737 | 8.89° C | 77% | 1012.4 hPa | 0 mm | - | - | - |
| 1777105937 | 8.33° C | 77% | 1011.8 hPa | 0 mm | - | - | - |
| 1777105337 | 8.33° C | 76% | 1011.9 hPa | 0 mm | - | - | - |
| 1777104137 | 8.89° C | 76% | 1011.6 hPa | 0 mm | - | - | - |
| 1777102937 | 9.44° C | 75% | 1011.2 hPa | 0 mm | - | - | - |
| 1777102337 | 9.44° C | 75% | 1011.4 hPa | 0 mm | - | - | - |
| 1777101137 | 10° C | 73% | 1011.4 hPa | 0 mm | - | - | - |
| 1777098157 | 11.11° C | 69% | 1011.2 hPa | 0 mm | - | - | - |
| 1777089137 | 13.89° C | 52% | 1009.9 hPa | 0 mm | - | - | - |
| 1777086737 | 15° C | 46% | 1009.5 hPa | 0 mm | - | - | - |
* Rain latest hour (hover to see other rain measurements)
** Current wind speed in m/s (hover to see current wind gust speed)